New York, NY (10034)

3:17 PM EDT on August 28, 2015 (GMT -0400)
Bronx Community College | | Change Station
CLOSE
Current Station
Personal Weather Station
Location: New York, NY
Elevation: 184 ft
Nearby Weather Stations

Elev 184 ft 40.86 °N, 73.91 °W | Updated 26 seconds ago

Partly Cloudy
Partly Cloudy
80.3 °F
Feels Like 81 °F
N
5.0
Wind Variable Wind from NNW
Gusts 8.5 mph

Today
High -- | Low -- °F
--% Chance of Precip.
Yesterday
High -- | Low -- °F
Precip. -- in
6:18 AM 7:34 PM
Waxing Gibbous, 99% visible
Pressure 30.14 in
Visibility 10.0 miles
Clouds Few 6000 ft
Heat Index 81 °F
Dew Point 58 °F
Humidity 45%
Rainfall 0.00 in
Snow Depth Not available.
UV 0.0 out of 12
Pollen 10.00 out of 12
Air Quality Not available.
Flu Activity Not available.
METAR KLGA 281851Z 32004KT 10SM FEW060 26/09 A3014 RMK AO2 SLP205 T02610094
Pressure 30.14 in
Visibility 10.0 miles
Clouds Few 6000 ft
Heat Index 81 °F
Dew Point 58 °F
Humidity 45%
Rainfall 0.00 in
Snow Depth Not available.
UV 0.0 out of 12
Pollen 10.00 out of 12
Air Quality Not available.
Flu Activity Not available.
METAR KLGA 281851Z 32004KT 10SM FEW060 26/09 A3014 RMK AO2 SLP205 T02610094

10-Day Weather Forecast

×

Almanac

Astronomy

Aug. 28, 2015 Rise Set
Actual Time
Civil Twilight
Nautical Twilight
Astronomical Twilight
Moon
Length of Visible Light
Length of Day
Tomorrow will be .
, % of the Moon is Illuminated

Today's Extremes

State Highs State Lows

Community

WunderPhotos

Upload Photos

1,850,460 photos uploaded!

WunderBlogs® & News

Nearby

Air Quality

  Air Quality AQ Index Pollutant
Not available.

Snow Depth

Station Depth Elevation

Earthquake Activity

City Distance Mag. Time & Date
Minimum magnitude displayed is 2.5.

Coastal Water Temperatures

Place Temperature

Stations

Nearby Weather Stations

Station Location Temp. Windchill Dew Point Humidity Wind Precip. Elev Updated Type